Time;durP1;ratioP1;P1;durP2;ratioP2;P2;SDS_P1;SDS_P2;PMS_P1;PMS_P2;Temp;Humidity;BMP_temperature;BMP_pressure;BME280_temperature;BME280_humidity;BME280_pressure;Samples;Min_cycle;Max_cycle;Signal;HPM_P1;HPM_P2
2022/12/20 00:01:15;;;;;;;63.70;35.00;;;0.70;2201.60;;;;;;5090428;28;20109;-58
2022/12/20 00:03:41;;;;;;;59.67;31.83;;;0.60;2201.60;;;;;;5090145;28;20036;-59
2022/12/20 00:06:07;;;;;;;59.25;31.90;;;0.40;2201.60;;;;;;5090156;28;20024;-58
2022/12/20 00:08:33;;;;;;;61.30;32.50;;;0.30;2201.60;;;;;;5090106;28;20073;-58
2022/12/20 00:11:01;;;;;;;48.10;28.80;;;0.20;2201.60;;;;;;5090185;28;20489;-59
2022/12/20 00:13:27;;;;;;;61.70;36.17;;;0.10;2201.60;;;;;;5089822;28;20486;-59
2022/12/20 00:16:09;;;;;;;70.43;40.00;;;0.30;2201.60;;;;;;5090344;28;20060;-58
2022/12/20 00:18:36;;;;;;;44.05;24.55;;;0.40;2201.60;;;;;;5090038;28;20081;-59
2022/12/20 00:21:04;;;;;;;51.65;28.45;;;0.20;2201.60;;;;;;5090492;28;20107;-58
2022/12/20 00:23:30;;;;;;;45.22;25.88;;;12.90;2201.60;;;;;;5093677;28;20119;-58
2022/12/20 00:26:05;;;;;;;85.70;45.97;;;12.90;2201.60;;;;;;5094385;28;20060;-58
2022/12/20 00:28:32;;;;;;;82.78;45.13;;;0.00;2201.60;;;;;;5094315;28;20027;-58
2022/12/20 00:30:58;;;;;;;166.70;85.10;;;0.10;2201.60;;;;;;5094042;28;20043;-58
2022/12/20 00:33:23;;;;;;;64.68;33.72;;;0.10;2201.60;;;;;;5094267;28;20374;-59
2022/12/20 00:35:49;;;;;;;112.47;70.00;;;0.10;2201.60;;;;;;5094101;28;20028;-58
2022/12/20 00:38:15;;;;;;;61.83;36.72;;;0.10;2201.60;;;;;;5094016;28;20031;-59
2022/12/20 00:40:40;;;;;;;59.30;37.33;;;0.10;2201.60;;;;;;5093874;28;20040;-59
2022/12/20 00:43:06;;;;;;;63.55;38.97;;;0.00;2201.60;;;;;;5093879;28;20046;-58
2022/12/20 00:45:32;;;;;;;50.13;28.20;;;0.00;2201.60;;;;;;5094124;28;20030;-58
2022/12/20 00:47:58;;;;;;;89.63;51.40;;;0.10;2201.60;;;;;;5093561;28;20050;-57
2022/12/20 00:50:23;;;;;;;54.45;27.98;;;0.10;2201.60;;;;;;5093874;28;20031;-58
2022/12/20 00:52:49;;;;;;;49.25;26.95;;;0.20;2201.60;;;;;;5093694;28;20114;-59
2022/12/20 00:55:15;;;;;;;64.97;35.38;;;0.10;2201.60;;;;;;5093639;28;20032;-59
2022/12/20 00:57:40;;;;;;;55.45;31.65;;;0.10;2201.60;;;;;;5093653;28;20523;-59
2022/12/20 01:00:07;;;;;;;67.80;39.17;;;0.30;2201.60;;;;;;5093525;28;20025;-59
2022/12/20 01:02:33;;;;;;;61.92;32.85;;;0.20;2201.60;;;;;;5093490;28;20102;-58
2022/12/20 01:04:58;;;;;;;58.40;34.30;;;0.20;2201.60;;;;;;5093335;28;20114;-59
2022/12/20 01:07:24;;;;;;;69.55;38.95;;;0.30;2201.60;;;;;;5093499;28;20035;-58
2022/12/20 01:09:50;;;;;;;75.30;41.33;;;0.20;2201.60;;;;;;5093331;28;20028;-59
2022/12/20 01:12:16;;;;;;;69.72;41.63;;;0.20;2201.60;;;;;;5093032;28;20043;-58
2022/12/20 01:14:42;;;;;;;73.95;38.33;;;0.30;2201.60;;;;;;5093440;28;20047;-59
2022/12/20 01:17:08;;;;;;;64.28;37.38;;;0.30;2201.60;;;;;;5092566;28;20470;-58
2022/12/20 01:19:34;;;;;;;62.38;33.55;;;0.30;2201.60;;;;;;5093237;28;20020;-58
2022/12/20 01:22:00;;;;;;;84.22;46.78;;;0.30;2201.60;;;;;;5092960;28;20515;-58
2022/12/20 01:24:25;;;;;;;68.90;39.60;;;0.30;2201.60;;;;;;5093248;28;20028;-58
2022/12/20 01:26:51;;;;;;;120.50;67.20;;;0.30;2201.60;;;;;;5093347;28;20466;-60
2022/12/20 01:29:17;;;;;;;96.88;56.60;;;0.30;2201.60;;;;;;5092894;28;20056;-59
2022/12/20 01:31:43;;;;;;;98.13;52.47;;;0.20;2201.60;;;;;;5093113;28;20081;-59
2022/12/20 01:34:09;;;;;;;96.05;52.05;;;0.20;2201.60;;;;;;5092416;28;20066;-58
2022/12/20 01:36:37;;;;;;;120.10;68.22;;;0.30;2201.60;;;;;;5093003;28;20019;-59
2022/12/20 01:39:07;;;;;;;143.18;76.85;;;0.30;2201.60;;;;;;5092755;28;20039;-58
2022/12/20 01:41:34;;;;;;;96.18;53.25;;;0.30;2201.60;;;;;;5092584;28;20127;-60
2022/12/20 01:44:24;;;;;;;103.60;55.13;;;0.30;2201.60;;;;;;5089560;28;20086;-59
2022/12/20 01:46:50;;;;;;;92.53;48.50;;;0.30;2201.60;;;;;;5091938;28;20023;-58
2022/12/20 01:49:23;;;;;;;70.75;37.08;;;0.10;2201.60;;;;;;5092424;28;20026;-58
2022/12/20 01:52:10;;;;;;;77.85;42.03;;;12.90;2201.60;;;;;;5092726;28;20028;-57
2022/12/20 01:54:42;;;;;;;75.55;41.78;;;12.90;2201.60;;;;;;5092550;28;20569;-60
2022/12/20 01:57:23;;;;;;;50.30;29.02;;;13.00;2201.60;;;;;;5092569;28;20012;-58
2022/12/20 01:59:51;;;;;;;68.82;39.72;;;13.10;2201.60;;;;;;5092266;28;20056;-59
2022/12/20 02:02:17;;;;;;;79.50;43.75;;;12.90;2201.60;;;;;;5092250;28;20058;-59
2022/12/20 02:04:42;;;;;;;83.95;45.03;;;13.10;2201.60;;;;;;5092388;28;20486;-59
2022/12/20 02:07:12;;;;;;;50.70;24.67;;;13.00;2201.60;;;;;;5092383;28;20019;-59
2022/12/20 02:09:38;;;;;;;39.15;23.25;;;13.30;2201.60;;;;;;5092147;28;20036;-60
2022/12/20 02:12:22;;;;;;;42.33;23.75;;;13.50;2201.60;;;;;;5092375;28;20537;-59
2022/12/20 02:15:06;;;;;;;44.78;24.60;;;13.50;2201.60;;;;;;5092092;28;20024;-59
2022/12/20 02:17:41;;;;;;;49.17;27.90;;;13.60;2201.60;;;;;;5092285;28;20016;-58
2022/12/20 02:20:12;;;;;;;49.40;26.70;;;13.60;2201.60;;;;;;5091984;28;20035;-61
2022/12/20 02:23:02;;;;;;;51.13;26.45;;;13.60;2201.60;;;;;;5091853;28;20481;-59
2022/12/20 02:25:41;;;;;;;60.10;31.23;;;13.60;2201.60;;;;;;5091699;28;20028;-59
2022/12/20 02:28:44;;;;;;;45.17;27.65;;;13.50;2201.60;;;;;;5091727;28;20067;-58
2022/12/20 02:31:16;;;;;;;49.22;27.88;;;13.40;2201.60;;;;;;5091519;28;20031;-59
2022/12/20 02:33:46;;;;;;;50.42;26.98;;;13.30;2201.60;;;;;;5092009;28;20107;-58
2022/12/20 02:36:15;;;;;;;49.28;25.85;;;13.50;2201.60;;;;;;5091929;28;20445;-59
2022/12/20 02:38:41;;;;;;;44.78;24.25;;;13.40;2201.60;;;;;;5091761;28;20023;-58
2022/12/20 02:41:15;;;;;;;57.95;30.63;;;13.60;2201.60;;;;;;5091567;28;20052;-58
2022/12/20 02:46:31;;;;;;;58.72;31.60;;;13.50;2201.60;;;;;;5091452;28;20109;-58
2022/12/20 02:49:00;;;;;;;71.05;39.03;;;13.50;2201.60;;;;;;5091353;28;20032;-59
2022/12/20 02:51:28;;;;;;;64.60;34.42;;;13.40;2201.60;;;;;;5091259;28;20074;-58
2022/12/20 02:53:54;;;;;;;53.97;30.73;;;13.20;2201.60;;;;;;5091360;28;20123;-60
2022/12/20 02:56:42;;;;;;;47.08;29.27;;;13.30;2201.60;;;;;;5091428;28;20525;-60
2022/12/20 02:59:13;;;;;;;52.30;27.80;;;13.30;2201.60;;;;;;5091359;28;20473;-58
2022/12/20 03:01:50;;;;;;;49.03;27.50;;;13.60;2201.60;;;;;;5091179;28;20103;-58
2022/12/20 03:04:18;;;;;;;42.80;24.77;;;13.70;2201.60;;;;;;5091005;28;20046;-59
2022/12/20 03:07:06;;;;;;;52.35;28.38;;;13.70;2201.60;;;;;;5089825;28;20405;-58
2022/12/20 03:09:34;;;;;;;50.25;26.75;;;38.40;2201.60;;;;;;5090980;28;20025;-58
2022/12/20 03:12:00;;;;;;;51.78;28.88;;;38.40;2201.60;;;;;;5090961;28;20051;-58
2022/12/20 03:14:26;;;;;;;46.20;27.50;;;13.70;2201.60;;;;;;5090773;28;20466;-58
2022/12/20 03:16:52;;;;;;;44.95;24.63;;;38.40;2201.60;;;;;;5090830;28;20066;-58
2022/12/20 03:19:19;;;;;;;58.22;29.95;;;38.40;2201.60;;;;;;5090635;28;20091;-58
2022/12/20 03:21:45;;;;;;;55.72;29.67;;;38.40;2201.60;;;;;;5090987;28;20031;-57
2022/12/20 03:24:12;;;;;;;51.65;27.08;;;38.40;2201.60;;;;;;5090840;28;20047;-58
2022/12/20 03:26:39;;;;;;;40.40;23.70;;;38.60;2201.60;;;;;;5090709;28;20027;-57
2022/12/20 03:29:05;;;;;;;45.70;25.77;;;38.70;2201.60;;;;;;5090690;28;20044;-57
2022/12/20 03:31:31;;;;;;;51.00;25.88;;;38.80;2201.60;;;;;;5090649;28;20063;-59
2022/12/20 03:33:56;;;;;;;44.92;24.65;;;38.90;2201.60;;;;;;5090439;28;20431;-58
2022/12/20 03:36:23;;;;;;;45.47;26.90;;;38.90;2201.60;;;;;;5090563;28;20510;-57
2022/12/20 03:38:50;;;;;;;48.45;26.08;;;38.90;2201.60;;;;;;5090272;28;20028;-58
2022/12/20 03:41:16;;;;;;;50.38;27.10;;;38.70;2201.60;;;;;;5090349;28;20052;-58
2022/12/20 03:43:41;;;;;;;48.38;26.60;;;38.50;2201.60;;;;;;5090371;28;20389;-58
2022/12/20 03:46:07;;;;;;;50.92;25.63;;;38.50;2201.60;;;;;;5088809;28;20036;-58
2022/12/20 03:48:33;;;;;;;44.35;23.50;;;38.40;2201.60;;;;;;5090396;28;20466;-57
2022/12/20 03:50:59;;;;;;;39.28;22.10;;;13.70;2201.60;;;;;;5090289;28;20020;-58
2022/12/20 03:53:24;;;;;;;41.95;25.08;;;13.70;2201.60;;;;;;5090518;28;20257;-58
2022/12/20 03:55:50;;;;;;;41.78;21.00;;;13.70;2201.60;;;;;;5090034;28;20370;-57
2022/12/20 03:58:16;;;;;;;37.67;22.45;;;13.70;2201.60;;;;;;5089714;28;20153;-59
2022/12/20 04:00:42;;;;;;;44.80;26.08;;;13.70;2201.60;;;;;;5090069;28;20035;-58
2022/12/20 04:03:07;;;;;;;44.47;24.63;;;38.40;2201.60;;;;;;5090017;28;20032;-58
2022/12/20 04:05:33;;;;;;;42.88;23.67;;;38.60;2201.60;;;;;;5088826;28;20032;-59
2022/12/20 04:07:59;;;;;;;42.50;24.75;;;38.60;2201.60;;;;;;5090219;28;20089;-58
2022/12/20 04:10:24;;;;;;;41.15;24.52;;;38.80;2201.60;;;;;;5090250;28;20581;-59
2022/12/20 04:12:50;;;;;;;52.55;27.75;;;38.90;2201.60;;;;;;5090054;28;20486;-58
2022/12/20 04:15:16;;;;;;;42.45;22.13;;;39.00;2201.60;;;;;;5089660;28;20031;-59
2022/12/20 04:17:42;;;;;;;47.00;25.85;;;39.00;2201.60;;;;;;5089979;28;20466;-58
2022/12/20 04:20:18;;;;;;;46.83;25.08;;;38.80;2201.60;;;;;;5090192;28;20419;-64
2022/12/20 04:22:49;;;;;;;43.03;24.67;;;38.80;2201.60;;;;;;5089042;28;20363;-65
2022/12/20 04:25:18;;;;;;;50.55;24.75;;;38.80;2201.60;;;;;;5090183;28;20027;-69
2022/12/20 04:27:44;;;;;;;44.97;28.98;;;38.70;2201.60;;;;;;5090179;28;20355;-58
2022/12/20 04:30:11;;;;;;;42.40;26.55;;;38.70;2201.60;;;;;;5089658;28;20028;-63
2022/12/20 04:32:37;;;;;;;56.25;29.77;;;38.80;2201.60;;;;;;5089824;28;20153;-59
2022/12/20 04:35:03;;;;;;;51.65;25.15;;;38.90;2201.60;;;;;;5089944;28;20393;-58
2022/12/20 04:37:30;;;;;;;50.00;25.83;;;39.10;2201.60;;;;;;5089689;28;20032;-58
2022/12/20 04:39:57;;;;;;;52.03;28.00;;;39.20;2201.60;;;;;;5089437;28;20097;-58
2022/12/20 04:42:23;;;;;;;57.45;27.48;;;39.20;2201.60;;;;;;5089841;28;20040;-58
2022/12/20 04:44:49;;;;;;;56.65;30.83;;;39.10;2201.60;;;;;;5089400;28;20378;-57
2022/12/20 04:47:15;;;;;;;48.35;26.98;;;39.20;2201.60;;;;;;5089649;28;20036;-60
2022/12/20 04:49:40;;;;;;;49.05;27.05;;;39.30;2201.60;;;;;;5089915;28;20035;-58
2022/12/20 04:54:50;;;;;;;52.85;28.13;;;39.30;2201.60;;;;;;5090205;28;20047;-58
2022/12/20 04:57:16;;;;;;;49.60;26.92;;;39.30;2201.60;;;;;;5089700;28;20462;-59
2022/12/20 04:59:42;;;;;;;58.15;28.27;;;39.30;2201.60;;;;;;5089598;28;20024;-59
2022/12/20 05:02:07;;;;;;;56.00;30.38;;;39.30;2201.60;;;;;;5089597;28;20430;-57
2022/12/20 05:04:33;;;;;;;51.95;27.65;;;39.20;2201.60;;;;;;5089737;28;20047;-59
2022/12/20 05:06:59;;;;;;;60.00;32.22;;;39.20;2201.60;;;;;;5089280;28;20028;-58
2022/12/20 05:09:24;;;;;;;66.32;34.90;;;39.30;2201.60;;;;;;5089758;28;20032;-58
2022/12/20 05:11:50;;;;;;;66.72;33.08;;;39.20;2201.60;;;;;;5092436;28;20028;-59
2022/12/20 05:14:16;;;;;;;59.20;32.20;;;39.30;2201.60;;;;;;5093192;28;20054;-59
2022/12/20 05:16:41;;;;;;;55.05;32.58;;;64.00;2201.60;;;;;;5093416;28;20031;-59
2022/12/20 05:19:07;;;;;;;59.30;32.13;;;64.00;2201.60;;;;;;5093435;28;20024;-58
2022/12/20 05:27:02;;;;;;;64.05;31.92;;;39.30;2201.60;;;;;;5093301;28;20732;-59
2022/12/20 05:29:27;;;;;;;69.70;33.53;;;64.00;2201.60;;;;;;5092768;28;20023;-58
2022/12/20 05:31:53;;;;;;;69.38;34.65;;;64.00;2201.60;;;;;;5093105;28;20604;-57
2022/12/20 05:34:19;;;;;;;69.53;34.55;;;64.10;2201.60;;;;;;5092698;28;20020;-58
2022/12/20 05:36:45;;;;;;;72.07;33.38;;;64.10;2201.60;;;;;;5093020;28;20028;-58
2022/12/20 05:39:11;;;;;;;60.83;34.22;;;64.10;2201.60;;;;;;5092622;28;20052;-59
2022/12/20 05:41:37;;;;;;;78.93;36.28;;;64.10;2201.60;;;;;;5092610;28;20532;-58
2022/12/20 05:44:03;;;;;;;73.38;37.25;;;64.20;2201.60;;;;;;5092796;28;20093;-58
2022/12/20 05:46:29;;;;;;;72.00;37.03;;;64.10;2201.60;;;;;;5091954;28;20032;-59
2022/12/20 05:48:54;;;;;;;71.70;39.17;;;64.00;2201.60;;;;;;5092133;28;20092;-64
2022/12/20 05:51:20;;;;;;;78.03;41.60;;;39.30;2201.60;;;;;;5092975;28;20526;-61
2022/12/20 05:53:46;;;;;;;73.85;40.42;;;39.30;2201.60;;;;;;5092144;28;20028;-59
2022/12/20 05:56:12;;;;;;;69.05;39.45;;;64.00;2201.60;;;;;;5091999;28;20519;-58
2022/12/20 05:58:39;;;;;;;71.95;35.70;;;64.10;1945.60;;;;;;5091887;28;20023;-58
2022/12/20 06:01:06;;;;;;;69.70;37.95;;;64.00;1971.20;;;;;;5090632;28;20044;-60
2022/12/20 06:03:32;;;;;;;70.25;38.35;;;64.10;2201.60;;;;;;5091443;28;20070;-61
2022/12/20 06:05:58;;;;;;;78.88;43.55;;;64.10;2201.60;;;;;;5091794;28;20047;-59
2022/12/20 06:08:23;;;;;;;72.65;37.00;;;64.20;1868.80;;;;;;5092626;28;20107;-59
2022/12/20 06:10:49;;;;;;;68.68;35.92;;;64.10;2201.60;;;;;;5091134;28;20034;-58
2022/12/20 06:13:15;;;;;;;64.18;38.60;;;64.20;2201.60;;;;;;5091949;28;20514;-59
2022/12/20 06:15:41;;;;;;;79.57;40.97;;;64.20;2124.80;;;;;;5092221;28;20031;-59
2022/12/20 06:18:07;;;;;;;80.43;43.42;;;64.20;2201.60;;;;;;5092104;28;20028;-59
2022/12/20 06:20:34;;;;;;;85.13;44.63;;;64.20;2150.40;;;;;;5091310;28;20024;-58
2022/12/20 06:23:00;;;;;;;71.60;38.20;;;64.20;1894.40;;;;;;5091954;28;20044;-58
2022/12/20 06:25:26;;;;;;;71.97;37.47;;;64.20;2201.60;;;;;;5092119;28;20032;-59
2022/12/20 06:27:52;;;;;;;72.00;34.35;;;64.10;2201.60;;;;;;5092109;28;20032;-58
2022/12/20 06:30:18;;;;;;;66.35;34.28;;;64.10;2201.60;;;;;;5091712;28;20047;-58
2022/12/20 06:32:44;;;;;;;63.28;35.40;;;64.10;2201.60;;;;;;5092176;28;20032;-58
2022/12/20 06:35:10;;;;;;;76.70;43.58;;;64.10;2201.60;;;;;;5091717;28;20493;-58
2022/12/20 06:37:36;;;;;;;73.53;38.60;;;64.10;2201.60;;;;;;5092095;28;20031;-58
2022/12/20 06:40:03;;;;;;;82.60;42.25;;;64.10;2201.60;;;;;;5091689;28;20116;-58
2022/12/20 06:42:29;;;;;;;81.40;45.92;;;64.10;2201.60;;;;;;5091537;28;20052;-59
2022/12/20 06:44:54;;;;;;;74.35;35.38;;;64.00;2201.60;;;;;;5091298;28;20044;-58
2022/12/20 06:47:20;;;;;;;73.50;39.38;;;64.10;2201.60;;;;;;5091506;28;20022;-58
2022/12/20 06:49:45;;;;;;;84.05;42.53;;;64.00;2201.60;;;;;;5091458;28;20020;-59
2022/12/20 06:52:11;;;;;;;89.25;47.58;;;64.00;2201.60;;;;;;5091599;28;20078;-58
2022/12/20 06:54:37;;;;;;;81.80;44.42;;;64.00;2201.60;;;;;;5091538;28;20474;-59
2022/12/20 06:57:02;;;;;;;94.85;51.83;;;64.00;2201.60;;;;;;5091654;28;20024;-59
2022/12/20 06:59:28;;;;;;;83.60;48.95;;;64.00;2201.60;;;;;;5091105;28;20020;-59
2022/12/20 07:01:54;;;;;;;91.30;46.85;;;39.30;2201.60;;;;;;5091659;28;20024;-59
2022/12/20 07:04:20;;;;;;;71.43;38.97;;;39.20;2201.60;;;;;;5091190;28;20070;-59
2022/12/20 07:06:46;;;;;;;72.53;41.15;;;38.90;2201.60;;;;;;5091021;28;20055;-59
2022/12/20 07:09:11;;;;;;;63.05;33.80;;;38.80;2201.60;;;;;;5091244;28;20516;-59
2022/12/20 07:11:37;;;;;;;59.25;33.75;;;38.70;2201.60;;;;;;5091078;28;20059;-59
2022/12/20 07:14:03;;;;;;;63.95;35.47;;;38.70;2201.60;;;;;;5091149;28;20024;-59
2022/12/20 07:16:30;;;;;;;58.95;33.65;;;38.60;2201.60;;;;;;5090853;28;20027;-59
2022/12/20 07:18:56;;;;;;;67.85;35.90;;;38.50;2201.60;;;;;;5090963;28;20035;-59
2022/12/20 07:21:22;;;;;;;62.83;36.35;;;13.70;2201.60;;;;;;5091355;28;20020;-59
2022/12/20 07:23:48;;;;;;;67.53;37.80;;;13.60;2201.60;;;;;;5090525;28;20109;-59
2022/12/20 07:26:14;;;;;;;80.22;39.70;;;13.70;2201.60;;;;;;5091007;28;20099;-59
2022/12/20 07:28:40;;;;;;;73.95;39.17;;;13.70;2201.60;;;;;;5090784;28;20032;-60
2022/12/20 07:31:06;;;;;;;74.95;39.58;;;38.40;2201.60;;;;;;5090602;28;20480;-60
2022/12/20 07:33:32;;;;;;;69.55;38.63;;;38.40;2201.60;;;;;;5091080;28;20027;-59
2022/12/20 07:36:03;;;;;;;77.15;39.42;;;13.70;2201.60;;;;;;5090759;28;20024;-59
2022/12/20 07:38:29;;;;;;;67.50;37.40;;;13.70;2201.60;;;;;;5090590;28;20024;-60
2022/12/20 07:40:54;;;;;;;67.47;36.97;;;13.70;2201.60;;;;;;5090624;28;20040;-58
2022/12/20 07:43:20;;;;;;;78.15;38.67;;;38.40;2201.60;;;;;;5090233;28;20036;-59
2022/12/20 07:45:46;;;;;;;78.40;41.15;;;13.70;2201.60;;;;;;5090354;28;20028;-59
2022/12/20 07:48:12;;;;;;;74.68;37.40;;;13.70;2201.60;;;;;;5090560;28;20032;-59
2022/12/20 07:50:39;;;;;;;71.97;40.13;;;13.60;2201.60;;;;;;5090587;28;20428;-59
2022/12/20 07:53:06;;;;;;;85.82;45.63;;;13.60;2201.60;;;;;;5090662;28;20036;-59
2022/12/20 07:55:32;;;;;;;74.80;38.60;;;13.50;2201.60;;;;;;5090350;28;20028;-58
2022/12/20 07:58:03;;;;;;;73.65;39.45;;;13.30;2201.60;;;;;;5090384;28;20122;-58
2022/12/20 08:00:30;;;;;;;74.13;42.65;;;13.20;2201.60;;;;;;5090150;28;20400;-58
2022/12/20 08:03:16;;;;;;;81.97;44.92;;;13.10;2201.60;;;;;;5090477;28;20444;-58
2022/12/20 08:05:45;;;;;;;80.57;42.85;;;13.00;2201.60;;;;;;5090390;28;20028;-57
2022/12/20 08:08:11;;;;;;;78.90;47.03;;;13.00;2201.60;;;;;;5090266;28;20048;-58
2022/12/20 08:10:38;;;;;;;60.03;35.45;;;12.90;2201.60;;;;;;5090071;28;20039;-58
2022/12/20 08:13:05;;;;;;;60.88;33.97;;;0.00;2201.60;;;;;;5090174;28;20032;-60
2022/12/20 08:15:32;;;;;;;63.55;32.65;;;0.10;2201.60;;;;;;5089837;28;20466;-58
2022/12/20 08:17:58;;;;;;;57.72;30.63;;;0.20;2201.60;;;;;;5090092;28;20462;-58
2022/12/20 08:20:24;;;;;;;54.20;31.83;;;0.40;2201.60;;;;;;5090331;28;20035;-57
2022/12/20 08:22:49;;;;;;;56.80;33.35;;;0.70;2201.60;;;;;;5090081;28;20039;-59
2022/12/20 08:25:15;;;;;;;64.43;34.60;;;26.30;2201.60;;;;;;5090067;28;20039;-58
2022/12/20 08:27:41;;;;;;;53.10;28.60;;;51.20;2227.20;;;;;;5090067;28;20115;-59
2022/12/20 08:30:09;;;;;;;51.58;28.88;;;51.30;2227.20;;;;;;5090159;28;20150;-59
2022/12/20 08:32:35;;;;;;;56.42;31.20;;;51.20;2227.20;;;;;;5090309;28;20024;-58
2022/12/20 08:35:01;;;;;;;57.38;33.95;;;51.30;2227.20;;;;;;5090112;28;20016;-57
2022/12/20 08:37:27;;;;;;;60.50;34.85;;;26.50;2201.60;;;;;;5089884;28;20051;-61
2022/12/20 08:39:52;;;;;;;62.15;37.17;;;51.60;2227.20;;;;;;5089862;28;20479;-59
2022/12/20 08:42:18;;;;;;;55.10;35.63;;;102.40;2227.20;;;;;;5089561;28;20039;-59
2022/12/20 08:44:44;;;;;;;66.50;39.22;;;153.60;2252.80;;;;;;5094286;28;20107;-62
2022/12/20 08:47:09;;;;;;;61.67;40.00;;;179.40;2252.80;;;;;;5093816;28;20463;-59
2022/12/20 08:49:35;;;;;;;65.22;44.38;;;205.50;2252.80;;;;;;5093706;28;20039;-60
2022/12/20 08:52:01;;;;;;;91.57;65.15;;;231.30;2176.00;;;;;;5093817;28;20058;-60
2022/12/20 08:54:27;;;;;;;93.03;68.72;;;281.70;2048.00;;;;;;5093391;28;20078;-62
2022/12/20 08:56:52;;;;;;;76.90;55.45;;;282.50;1945.60;;;;;;5093661;28;20028;-60
2022/12/20 08:59:18;;;;;;;64.30;46.15;;;307.30;1920.00;;;;;;5093374;28;20028;-62
2022/12/20 09:01:44;;;;;;;59.53;42.80;;;307.60;1894.40;;;;;;5093650;28;20424;-60
2022/12/20 09:04:10;;;;;;;57.92;43.35;;;307.90;1843.20;;;;;;5093678;28;20039;-60
2022/12/20 09:06:36;;;;;;;60.83;45.45;;;332.90;1843.20;;;;;;5093674;28;20374;-61
2022/12/20 09:09:03;;;;;;;112.63;82.35;;;333.40;1792.00;;;;;;5093439;28;20073;-62
2022/12/20 09:11:29;;;;;;;80.68;63.33;;;358.40;1766.40;;;;;;5093434;28;21063;-60
2022/12/20 09:13:57;;;;;;;100.97;77.95;;;358.60;1740.80;;;;;;5093477;28;20032;-65
2022/12/20 09:16:29;;;;;;;66.80;52.15;;;358.60;1715.20;;;;;;5093475;28;20021;-59
2022/12/20 09:18:56;;;;;;;63.63;46.65;;;358.40;1740.80;;;;;;5092363;28;20036;-59
2022/12/20 09:21:22;;;;;;;89.40;64.95;;;333.20;1766.40;;;;;;5093617;28;20063;-60
2022/12/20 09:23:53;;;;;;;116.95;80.35;;;307.60;1817.60;;;;;;5093203;28;20450;-59
2022/12/20 09:26:21;;;;;;;115.70;84.03;;;256.30;1920.00;;;;;;5093215;28;20071;-61
2022/12/20 09:28:47;;;;;;;123.72;86.40;;;230.80;2022.40;;;;;;5092925;28;20404;-60
2022/12/20 09:31:16;;;;;;;204.88;138.30;;;205.50;2099.20;;;;;;5093386;28;20030;-59
2022/12/20 09:33:42;;;;;;;133.13;92.28;;;205.20;2124.80;;;;;;5093245;28;20103;-58
2022/12/20 09:36:19;;;;;;;126.53;90.72;;;179.90;2201.60;;;;;;5093102;28;20024;-58
2022/12/20 09:38:46;;;;;;;139.00;88.05;;;154.20;2252.80;;;;;;5092912;28;20112;-62
2022/12/20 09:41:33;;;;;;;122.22;73.78;;;153.80;2252.80;;;;;;5092922;28;20135;-59
2022/12/20 09:44:04;;;;;;;195.23;136.45;;;153.60;2252.80;;;;;;5090541;28;20040;-59
2022/12/20 09:46:30;;;;;;;118.38;72.90;;;153.60;2252.80;;;;;;5090713;28;20024;-60
2022/12/20 09:48:56;;;;;;;105.70;68.10;;;128.90;2252.80;;;;;;5091437;28;20058;-60
2022/12/20 09:51:38;;;;;;;108.20;70.00;;;128.40;2252.80;;;;;;5091362;28;20105;-61
2022/12/20 09:54:42;;;;;;;105.95;68.47;;;128.20;2252.80;;;;;;5090519;28;20028;-58
2022/12/20 09:57:29;;;;;;;113.63;69.25;;;103.30;2227.20;;;;;;5090904;28;20500;-60
2022/12/20 09:59:57;;;;;;;113.47;74.90;;;128.10;2252.80;;;;;;5091408;28;20035;-62
2022/12/20 10:02:24;;;;;;;125.95;80.10;;;128.00;2252.80;;;;;;5091044;28;20076;-58
2022/12/20 10:04:52;;;;;;;112.68;71.78;;;128.00;2252.80;;;;;;5091132;28;20031;-58
2022/12/20 10:07:29;;;;;;;126.55;72.95;;;103.00;2227.20;;;;;;5090719;28;20027;-59
2022/12/20 10:10:07;;;;;;;126.38;76.90;;;103.00;2227.20;;;;;;5090213;28;20062;-60
2022/12/20 10:12:53;;;;;;;119.50;73.55;;;103.10;2227.20;;;;;;5090823;28;20032;-59
2022/12/20 10:15:37;;;;;;;123.85;73.90;;;103.00;2227.20;;;;;;5090443;28;20059;-59
2022/12/20 10:18:05;;;;;;;117.95;72.28;;;103.00;2227.20;;;;;;5090741;28;20024;-59
2022/12/20 10:21:03;;;;;;;157.90;91.30;;;102.70;2227.20;;;;;;5090735;28;20028;-62
2022/12/20 10:24:01;;;;;;;119.70;74.28;;;102.70;2227.20;;;;;;5089804;28;20470;-59
2022/12/20 10:26:28;;;;;;;102.40;60.47;;;102.70;2227.20;;;;;;5090494;28;20095;-58
2022/12/20 10:28:54;;;;;;;109.00;69.93;;;102.90;2227.20;;;;;;5090553;28;20085;-59
2022/12/20 10:31:20;;;;;;;114.18;68.80;;;103.00;2227.20;;;;;;5090079;28;20382;-58
2022/12/20 10:33:46;;;;;;;105.50;63.10;;;103.10;2227.20;;;;;;5090063;28;20050;-58
2022/12/20 10:36:27;;;;;;;108.40;65.57;;;103.20;2227.20;;;;;;5090112;28;20050;-58
2022/12/20 10:38:58;;;;;;;100.68;59.72;;;103.30;2227.20;;;;;;5090197;28;20131;-60
2022/12/20 10:41:48;;;;;;;93.60;52.08;;;128.00;2252.80;;;;;;5090023;28;20127;-60
2022/12/20 10:44:21;;;;;;;106.75;59.58;;;103.20;2227.20;;;;;;5089928;28;20028;-60
2022/12/20 10:46:52;;;;;;;76.35;42.95;;;103.30;2227.20;;;;;;5089740;28;20095;-58
2022/12/20 10:49:26;;;;;;;87.78;48.47;;;103.20;2227.20;;;;;;5089791;28;20087;-59
2022/12/20 10:52:03;;;;;;;114.82;63.08;;;103.10;2227.20;;;;;;5089828;28;20490;-61
2022/12/20 10:54:36;;;;;;;90.22;53.15;;;103.10;2227.20;;;;;;5089793;28;20056;-61
2022/12/20 10:57:30;;;;;;;81.07;47.45;;;103.10;2227.20;;;;;;5089868;28;20563;-64
2022/12/20 11:00:01;;;;;;;67.55;38.78;;;103.10;2227.20;;;;;;5089516;28;20490;-62
2022/12/20 11:02:36;;;;;;;62.20;34.72;;;103.20;2227.20;;;;;;5088942;28;20020;-61
2022/12/20 11:05:22;;;;;;;90.68;48.28;;;128.00;2252.80;;;;;;5089666;28;20027;-64
2022/12/20 11:07:58;;;;;;;109.47;60.63;;;128.10;2252.80;;;;;;5089576;28;20024;-60
2022/12/20 11:10:26;;;;;;;77.93;45.78;;;128.30;2252.80;;;;;;5089575;28;20016;-65
2022/12/20 11:12:57;;;;;;;88.95;50.75;;;128.10;2252.80;;;;;;5089768;28;20048;-64
2022/12/20 11:15:36;;;;;;;98.00;55.67;;;128.00;2252.80;;;;;;5089040;28;20026;-62
2022/12/20 11:18:07;;;;;;;86.80;46.60;;;128.00;2252.80;;;;;;5089338;28;20028;-63
2022/12/20 11:20:56;;;;;;;77.32;43.30;;;103.30;2227.20;;;;;;5089480;28;20412;-64
2022/12/20 11:23:35;;;;;;;73.63;42.58;;;128.00;2252.80;;;;;;5089472;28;20089;-63
2022/12/20 11:26:40;;;;;;;80.47;47.05;;;128.20;2252.80;;;;;;5089391;28;20107;-62
2022/12/20 11:29:21;;;;;;;73.70;41.08;;;128.30;2252.80;;;;;;5087972;28;20627;-63
2022/12/20 11:32:09;;;;;;;72.60;41.92;;;128.30;2252.80;;;;;;5088913;28;20115;-62
2022/12/20 11:34:54;;;;;;;78.32;49.70;;;128.50;2252.80;;;;;;5089289;28;20020;-63
2022/12/20 11:37:26;;;;;;;77.93;45.35;;;128.30;2252.80;;;;;;5088880;28;20115;-67
2022/12/20 11:40:13;;;;;;;76.38;45.40;;;128.40;2252.80;;;;;;5088861;28;20028;-61
2022/12/20 11:42:57;;;;;;;66.53;39.10;;;128.30;2252.80;;;;;;5088169;28;20040;-69
2022/12/20 11:45:26;;;;;;;;;;;128.30;2252.80;;;;;;5089363;28;20027;-68
2022/12/20 11:48:03;;;;;;;84.53;46.90;;;128.50;2252.80;;;;;;5089331;28;19935;-69
2022/12/20 11:50:48;;;;;;;78.80;43.15;;;128.40;2252.80;;;;;;5089136;28;20362;-70
2022/12/20 11:53:31;;;;;;;92.25;54.10;;;128.60;2252.80;;;;;;5089559;28;20019;-70
2022/12/20 11:56:02;;;;;;;80.88;45.55;;;128.80;2252.80;;;;;;5091612;28;20028;-67
2022/12/20 11:58:50;;;;;;;86.97;50.45;;;128.70;2252.80;;;;;;5090402;28;20129;-68
2022/12/20 12:01:19;;;;;;;66.82;41.92;;;128.90;2252.80;;;;;;5090211;28;20381;-64
2022/12/20 12:04:00;;;;;;;56.17;34.58;;;128.90;2252.80;;;;;;5090349;28;20485;-67
2022/12/20 12:06:32;;;;;;;73.65;44.55;;;128.90;2252.80;;;;;;5089230;28;20039;-63
2022/12/20 12:09:05;;;;;;;72.45;44.58;;;128.80;2252.80;;;;;;5088087;28;20488;-61
2022/12/20 12:11:36;;;;;;;58.40;36.28;;;128.70;2252.80;;;;;;5089070;28;20085;-66
2022/12/20 12:14:04;;;;;;;82.55;48.83;;;128.80;2252.80;;;;;;5088896;28;20099;-57
2022/12/20 12:16:33;;;;;;;76.85;45.25;;;128.90;2252.80;;;;;;5088725;28;20529;-63
2022/12/20 12:19:00;;;;;;;119.53;65.25;;;153.70;2252.80;;;;;;5088038;28;20377;-63
2022/12/20 12:21:50;;;;;;;80.43;50.58;;;153.60;2252.80;;;;;;5088513;28;20024;-56
2022/12/20 12:24:34;;;;;;;66.97;41.33;;;153.70;2252.80;;;;;;5088374;28;20551;-61
2022/12/20 12:27:01;;;;;;;72.95;39.92;;;153.70;2252.80;;;;;;5088211;28;20028;-62
2022/12/20 12:29:29;;;;;;;94.30;53.97;;;153.60;2252.80;;;;;;5088351;28;20028;-59